Kezdőlap
METAR-TAF:

METAR-TAF

Repülőterek :

Imperial Municipal Airport

Imperial, Nebraska, Amerikai Egyesült Államok

földrajzi szélesség: 40-31N, földrajzi hosszúság: 101-37W, magasság: 997 m

Jelenlegi meteorológiai megfigyelések

A jelentés 1 órával és 5 perccel ezelõtt készült, 05:53 UTC
Dél-délnyugati szél 11 kt
Hőmérséklet 26°C
Páratartalom 48%
Légköri nyomás 1013 hPa
Látótávolság: 16.1 km
Derült ég

METAR: KIML 240553Z AUTO 20011KT 10SM CLR 26/14 A2990 RMK AO2 SLP077 T02610139 10378 20261 51010

Idő: 00:58 (06:58 UTC)


TAF: hiányzik

Meteorológiai megfigyelések és előrejelzések több, mint 4000 repülőtéren (METAR és TAF jelentéseket).

A térképen piros és sárga pontok jelzik az elérhető meteorológiai állomásokat.

Mozgassa az egeret a pont fölött, hogy megjelenjen az állomás neve.

Azután kattintson az időjárási megfigyelések és előrejelzések megtekintéséhez.

A térkép megváltoztatása: kattintson a fekete keresztel jelölt zöld gombra ráközelítéshez, a vonallal jelölt zöld gombra távolításhoz, vagy a zöld nyilakra a szomszédos térképek eléréséhez.


METAR-TAF: